sensor_id;sensor_type;location;lat;lon;timestamp;P1;durP1;ratioP1;P2;durP2;ratioP2
12120;SDS011;6124;59.460;17.908;2023-01-01T00:00:14;20.67;;;7.70;;
12120;SDS011;6124;59.460;17.908;2023-01-01T00:02:43;15.37;;;7.57;;
12120;SDS011;6124;59.460;17.908;2023-01-01T00:05:10;15.80;;;6.97;;
12120;SDS011;6124;59.460;17.908;2023-01-01T00:07:37;13.80;;;6.07;;
12120;SDS011;6124;59.460;17.908;2023-01-01T00:10:05;13.70;;;3.93;;
12120;SDS011;6124;59.460;17.908;2023-01-01T00:12:50;11.30;;;4.07;;
12120;SDS011;6124;59.460;17.908;2023-01-01T00:15:18;12.43;;;5.60;;
12120;SDS011;6124;59.460;17.908;2023-01-01T00:17:46;14.40;;;4.20;;
12120;SDS011;6124;59.460;17.908;2023-01-01T00:20:14;12.50;;;3.97;;
12120;SDS011;6124;59.460;17.908;2023-01-01T00:22:41;11.17;;;4.10;;
12120;SDS011;6124;59.460;17.908;2023-01-01T00:25:09;12.97;;;4.10;;
12120;SDS011;6124;59.460;17.908;2023-01-01T00:27:38;12.20;;;3.40;;
12120;SDS011;6124;59.460;17.908;2023-01-01T00:30:06;8.80;;;3.63;;
12120;SDS011;6124;59.460;17.908;2023-01-01T00:32:33;11.23;;;4.40;;
12120;SDS011;6124;59.460;17.908;2023-01-01T00:35:02;10.43;;;2.93;;
12120;SDS011;6124;59.460;17.908;2023-01-01T00:37:30;11.30;;;3.13;;
12120;SDS011;6124;59.460;17.908;2023-01-01T00:39:57;7.07;;;2.67;;
12120;SDS011;6124;59.460;17.908;2023-01-01T00:42:25;10.57;;;2.87;;
12120;SDS011;6124;59.460;17.908;2023-01-01T00:44:52;7.13;;;2.90;;
12120;SDS011;6124;59.460;17.908;2023-01-01T00:47:19;5.50;;;2.90;;
12120;SDS011;6124;59.460;17.908;2023-01-01T00:49:47;5.50;;;1.87;;
12120;SDS011;6124;59.460;17.908;2023-01-01T00:52:15;5.50;;;2.67;;
12120;SDS011;6124;59.460;17.908;2023-01-01T00:54:43;7.67;;;2.70;;
12120;SDS011;6124;59.460;17.908;2023-01-01T00:57:10;7.43;;;2.53;;
12120;SDS011;6124;59.460;17.908;2023-01-01T00:59:37;9.80;;;2.20;;
12120;SDS011;6124;59.460;17.908;2023-01-01T01:02:05;8.00;;;2.50;;
12120;SDS011;6124;59.460;17.908;2023-01-01T01:04:32;8.50;;;2.23;;
12120;SDS011;6124;59.460;17.908;2023-01-01T01:06:59;8.93;;;2.60;;
12120;SDS011;6124;59.460;17.908;2023-01-01T01:09:28;7.43;;;2.70;;
12120;SDS011;6124;59.460;17.908;2023-01-01T01:11:55;5.27;;;2.13;;
12120;SDS011;6124;59.460;17.908;2023-01-01T01:14:23;6.77;;;2.30;;
12120;SDS011;6124;59.460;17.908;2023-01-01T01:16:50;7.43;;;2.27;;
12120;SDS011;6124;59.460;17.908;2023-01-01T01:19:17;7.87;;;2.77;;
12120;SDS011;6124;59.460;17.908;2023-01-01T01:21:48;8.47;;;2.70;;
12120;SDS011;6124;59.460;17.908;2023-01-01T01:24:16;6.97;;;2.23;;
12120;SDS011;6124;59.460;17.908;2023-01-01T01:26:45;7.10;;;2.63;;
12120;SDS011;6124;59.460;17.908;2023-01-01T01:29:12;8.30;;;2.37;;
12120;SDS011;6124;59.460;17.908;2023-01-01T01:31:39;11.87;;;2.60;;
12120;SDS011;6124;59.460;17.908;2023-01-01T01:34:07;7.30;;;2.07;;
12120;SDS011;6124;59.460;17.908;2023-01-01T01:36:34;10.30;;;2.53;;
12120;SDS011;6124;59.460;17.908;2023-01-01T01:39:02;3.57;;;2.00;;
12120;SDS011;6124;59.460;17.908;2023-01-01T01:41:29;5.87;;;2.47;;
12120;SDS011;6124;59.460;17.908;2023-01-01T01:43:58;6.73;;;2.20;;
12120;SDS011;6124;59.460;17.908;2023-01-01T01:46:31;4.77;;;2.20;;
12120;SDS011;6124;59.460;17.908;2023-01-01T01:48:59;8.17;;;2.70;;
12120;SDS011;6124;59.460;17.908;2023-01-01T01:51:29;6.50;;;2.40;;
12120;SDS011;6124;59.460;17.908;2023-01-01T01:53:58;5.97;;;2.40;;
12120;SDS011;6124;59.460;17.908;2023-01-01T01:56:28;7.43;;;2.40;;
12120;SDS011;6124;59.460;17.908;2023-01-01T01:58:55;9.00;;;2.40;;
12120;SDS011;6124;59.460;17.908;2023-01-01T02:01:24;6.33;;;2.10;;
12120;SDS011;6124;59.460;17.908;2023-01-01T02:03:54;6.30;;;2.10;;
12120;SDS011;6124;59.460;17.908;2023-01-01T02:06:23;6.33;;;2.50;;
12120;SDS011;6124;59.460;17.908;2023-01-01T02:08:51;7.97;;;2.67;;
12120;SDS011;6124;59.460;17.908;2023-01-01T02:11:18;6.57;;;2.43;;
12120;SDS011;6124;59.460;17.908;2023-01-01T02:13:46;7.33;;;2.70;;
12120;SDS011;6124;59.460;17.908;2023-01-01T02:16:15;5.47;;;2.20;;
12120;SDS011;6124;59.460;17.908;2023-01-01T02:18:47;6.53;;;2.03;;
12120;SDS011;6124;59.460;17.908;2023-01-01T02:21:18;9.47;;;2.33;;
12120;SDS011;6124;59.460;17.908;2023-01-01T02:23:54;6.10;;;2.07;;
12120;SDS011;6124;59.460;17.908;2023-01-01T02:26:39;6.77;;;2.10;;
12120;SDS011;6124;59.460;17.908;2023-01-01T02:29:12;6.37;;;2.23;;
12120;SDS011;6124;59.460;17.908;2023-01-01T02:31:42;6.23;;;2.20;;
12120;SDS011;6124;59.460;17.908;2023-01-01T02:34:11;9.60;;;2.57;;
12120;SDS011;6124;59.460;17.908;2023-01-01T02:36:42;9.27;;;2.70;;
12120;SDS011;6124;59.460;17.908;2023-01-01T02:39:10;5.67;;;2.27;;
12120;SDS011;6124;59.460;17.908;2023-01-01T02:41:40;7.97;;;2.50;;
12120;SDS011;6124;59.460;17.908;2023-01-01T02:44:09;6.33;;;2.07;;
12120;SDS011;6124;59.460;17.908;2023-01-01T02:46:38;8.27;;;2.30;;
12120;SDS011;6124;59.460;17.908;2023-01-01T02:49:06;5.13;;;2.13;;
12120;SDS011;6124;59.460;17.908;2023-01-01T02:51:34;7.93;;;2.13;;
12120;SDS011;6124;59.460;17.908;2023-01-01T02:54:04;9.87;;;2.30;;
12120;SDS011;6124;59.460;17.908;2023-01-01T02:56:35;8.60;;;2.53;;
12120;SDS011;6124;59.460;17.908;2023-01-01T02:59:09;6.07;;;2.30;;
12120;SDS011;6124;59.460;17.908;2023-01-01T03:01:58;4.73;;;2.20;;
12120;SDS011;6124;59.460;17.908;2023-01-01T03:04:30;6.17;;;2.23;;
12120;SDS011;6124;59.460;17.908;2023-01-01T03:07:00;5.83;;;2.37;;
12120;SDS011;6124;59.460;17.908;2023-01-01T03:09:34;6.70;;;2.73;;
12120;SDS011;6124;59.460;17.908;2023-01-01T03:12:05;4.67;;;1.83;;
12120;SDS011;6124;59.460;17.908;2023-01-01T03:14:35;6.63;;;2.43;;
12120;SDS011;6124;59.460;17.908;2023-01-01T03:17:06;7.93;;;2.50;;
12120;SDS011;6124;59.460;17.908;2023-01-01T03:19:34;5.10;;;1.87;;
12120;SDS011;6124;59.460;17.908;2023-01-01T03:22:04;6.33;;;2.40;;
12120;SDS011;6124;59.460;17.908;2023-01-01T03:24:33;7.77;;;2.30;;
12120;SDS011;6124;59.460;17.908;2023-01-01T03:27:02;4.40;;;1.97;;
12120;SDS011;6124;59.460;17.908;2023-01-01T03:29:32;8.53;;;2.17;;
12120;SDS011;6124;59.460;17.908;2023-01-01T03:32:01;6.10;;;2.30;;
12120;SDS011;6124;59.460;17.908;2023-01-01T03:34:33;5.43;;;2.00;;
12120;SDS011;6124;59.460;17.908;2023-01-01T03:37:02;7.63;;;2.20;;
12120;SDS011;6124;59.460;17.908;2023-01-01T03:39:32;7.37;;;2.63;;
12120;SDS011;6124;59.460;17.908;2023-01-01T03:42:03;4.83;;;2.20;;
12120;SDS011;6124;59.460;17.908;2023-01-01T03:44:34;4.67;;;2.13;;
12120;SDS011;6124;59.460;17.908;2023-01-01T03:47:04;5.53;;;2.47;;
12120;SDS011;6124;59.460;17.908;2023-01-01T03:49:33;6.13;;;1.90;;
12120;SDS011;6124;59.460;17.908;2023-01-01T03:52:04;8.27;;;2.37;;
12120;SDS011;6124;59.460;17.908;2023-01-01T03:54:35;7.90;;;2.47;;
12120;SDS011;6124;59.460;17.908;2023-01-01T03:57:09;4.80;;;2.13;;
12120;SDS011;6124;59.460;17.908;2023-01-01T03:59:39;7.77;;;2.50;;
12120;SDS011;6124;59.460;17.908;2023-01-01T04:02:07;6.10;;;2.03;;
12120;SDS011;6124;59.460;17.908;2023-01-01T04:04:36;5.30;;;2.20;;
12120;SDS011;6124;59.460;17.908;2023-01-01T04:07:04;6.00;;;2.20;;
12120;SDS011;6124;59.460;17.908;2023-01-01T04:09:31;5.27;;;2.20;;
12120;SDS011;6124;59.460;17.908;2023-01-01T04:12:00;5.97;;;2.37;;
12120;SDS011;6124;59.460;17.908;2023-01-01T04:14:29;8.10;;;2.60;;
12120;SDS011;6124;59.460;17.908;2023-01-01T04:16:57;5.50;;;2.30;;
12120;SDS011;6124;59.460;17.908;2023-01-01T04:19:25;6.80;;;2.37;;
12120;SDS011;6124;59.460;17.908;2023-01-01T04:21:54;6.63;;;2.67;;
12120;SDS011;6124;59.460;17.908;2023-01-01T04:24:21;7.23;;;2.50;;
12120;SDS011;6124;59.460;17.908;2023-01-01T04:26:49;9.03;;;2.63;;
12120;SDS011;6124;59.460;17.908;2023-01-01T04:29:16;5.37;;;2.33;;
12120;SDS011;6124;59.460;17.908;2023-01-01T04:31:43;4.67;;;1.90;;
12120;SDS011;6124;59.460;17.908;2023-01-01T04:34:11;5.03;;;2.60;;
12120;SDS011;6124;59.460;17.908;2023-01-01T04:36:38;4.90;;;2.47;;
12120;SDS011;6124;59.460;17.908;2023-01-01T04:39:07;7.60;;;2.30;;
12120;SDS011;6124;59.460;17.908;2023-01-01T04:41:34;4.83;;;2.33;;
12120;SDS011;6124;59.460;17.908;2023-01-01T04:44:02;4.47;;;2.30;;
12120;SDS011;6124;59.460;17.908;2023-01-01T04:46:29;6.40;;;2.97;;
12120;SDS011;6124;59.460;17.908;2023-01-01T04:48:57;6.07;;;2.23;;
12120;SDS011;6124;59.460;17.908;2023-01-01T04:51:24;5.97;;;2.40;;
12120;SDS011;6124;59.460;17.908;2023-01-01T04:53:51;3.17;;;1.80;;
12120;SDS011;6124;59.460;17.908;2023-01-01T04:56:20;7.13;;;2.50;;
12120;SDS011;6124;59.460;17.908;2023-01-01T04:58:48;6.10;;;2.47;;
12120;SDS011;6124;59.460;17.908;2023-01-01T05:01:16;3.53;;;2.20;;
12120;SDS011;6124;59.460;17.908;2023-01-01T05:03:44;7.47;;;2.90;;
12120;SDS011;6124;59.460;17.908;2023-01-01T05:06:11;7.50;;;2.70;;
12120;SDS011;6124;59.460;17.908;2023-01-01T05:08:39;8.90;;;3.10;;
12120;SDS011;6124;59.460;17.908;2023-01-01T05:11:08;6.00;;;2.90;;
12120;SDS011;6124;59.460;17.908;2023-01-01T05:13:37;4.97;;;2.43;;
12120;SDS011;6124;59.460;17.908;2023-01-01T05:16:06;5.30;;;2.73;;
12120;SDS011;6124;59.460;17.908;2023-01-01T05:18:33;5.27;;;2.10;;
12120;SDS011;6124;59.460;17.908;2023-01-01T05:21:01;6.73;;;2.77;;
12120;SDS011;6124;59.460;17.908;2023-01-01T05:23:29;6.87;;;2.60;;
12120;SDS011;6124;59.460;17.908;2023-01-01T05:25:56;5.33;;;2.80;;
12120;SDS011;6124;59.460;17.908;2023-01-01T05:28:23;6.43;;;2.70;;
12120;SDS011;6124;59.460;17.908;2023-01-01T05:30:52;6.77;;;3.40;;
12120;SDS011;6124;59.460;17.908;2023-01-01T05:33:20;6.80;;;2.83;;
12120;SDS011;6124;59.460;17.908;2023-01-01T05:35:51;6.73;;;2.90;;
12120;SDS011;6124;59.460;17.908;2023-01-01T05:38:18;5.67;;;3.00;;
12120;SDS011;6124;59.460;17.908;2023-01-01T05:40:46;4.60;;;2.70;;
12120;SDS011;6124;59.460;17.908;2023-01-01T05:43:15;7.83;;;2.70;;
12120;SDS011;6124;59.460;17.908;2023-01-01T05:45:42;6.73;;;3.30;;
12120;SDS011;6124;59.460;17.908;2023-01-01T05:48:12;5.70;;;3.13;;
12120;SDS011;6124;59.460;17.908;2023-01-01T05:50:39;6.17;;;2.63;;
12120;SDS011;6124;59.460;17.908;2023-01-01T05:53:07;6.37;;;3.27;;
12120;SDS011;6124;59.460;17.908;2023-01-01T05:55:34;8.50;;;3.00;;
12120;SDS011;6124;59.460;17.908;2023-01-01T05:58:01;5.70;;;2.73;;
12120;SDS011;6124;59.460;17.908;2023-01-01T06:00:29;5.57;;;2.90;;
12120;SDS011;6124;59.460;17.908;2023-01-01T06:02:56;7.00;;;2.87;;
12120;SDS011;6124;59.460;17.908;2023-01-01T06:05:25;5.77;;;3.27;;
12120;SDS011;6124;59.460;17.908;2023-01-01T06:07:52;8.07;;;3.27;;
12120;SDS011;6124;59.460;17.908;2023-01-01T06:10:19;9.00;;;3.17;;
12120;SDS011;6124;59.460;17.908;2023-01-01T06:12:47;5.37;;;3.13;;
12120;SDS011;6124;59.460;17.908;2023-01-01T06:15:14;10.40;;;3.40;;
12120;SDS011;6124;59.460;17.908;2023-01-01T06:17:41;8.60;;;3.60;;
12120;SDS011;6124;59.460;17.908;2023-01-01T06:20:09;8.20;;;3.23;;
12120;SDS011;6124;59.460;17.908;2023-01-01T06:22:38;8.67;;;3.20;;
12120;SDS011;6124;59.460;17.908;2023-01-01T06:25:06;5.90;;;3.20;;
12120;SDS011;6124;59.460;17.908;2023-01-01T06:27:33;7.67;;;3.43;;
12120;SDS011;6124;59.460;17.908;2023-01-01T06:30:01;6.97;;;3.40;;
12120;SDS011;6124;59.460;17.908;2023-01-01T06:32:28;7.30;;;3.00;;
12120;SDS011;6124;59.460;17.908;2023-01-01T06:34:55;5.67;;;2.97;;
12120;SDS011;6124;59.460;17.908;2023-01-01T06:37:22;5.67;;;2.87;;
12120;SDS011;6124;59.460;17.908;2023-01-01T06:39:51;5.53;;;2.80;;
12120;SDS011;6124;59.460;17.908;2023-01-01T06:42:18;9.60;;;3.27;;
12120;SDS011;6124;59.460;17.908;2023-01-01T06:44:46;7.63;;;2.90;;
12120;SDS011;6124;59.460;17.908;2023-01-01T06:47:13;5.43;;;2.77;;
12120;SDS011;6124;59.460;17.908;2023-01-01T06:49:40;6.70;;;2.80;;
12120;SDS011;6124;59.460;17.908;2023-01-01T06:52:08;8.70;;;2.87;;
12120;SDS011;6124;59.460;17.908;2023-01-01T06:54:35;6.80;;;2.93;;
12120;SDS011;6124;59.460;17.908;2023-01-01T06:57:04;7.73;;;3.60;;
12120;SDS011;6124;59.460;17.908;2023-01-01T06:59:31;5.47;;;3.20;;
12120;SDS011;6124;59.460;17.908;2023-01-01T07:01:58;6.03;;;3.60;;
12120;SDS011;6124;59.460;17.908;2023-01-01T07:04:26;7.47;;;3.27;;
12120;SDS011;6124;59.460;17.908;2023-01-01T07:06:53;7.17;;;3.07;;
12120;SDS011;6124;59.460;17.908;2023-01-01T07:09:20;10.87;;;3.47;;
12120;SDS011;6124;59.460;17.908;2023-01-01T07:11:47;7.53;;;3.33;;
12120;SDS011;6124;59.460;17.908;2023-01-01T07:14:16;7.97;;;3.30;;
12120;SDS011;6124;59.460;17.908;2023-01-01T07:16:43;6.10;;;3.13;;
12120;SDS011;6124;59.460;17.908;2023-01-01T07:19:11;7.73;;;2.80;;
12120;SDS011;6124;59.460;17.908;2023-01-01T07:21:39;5.77;;;2.80;;
12120;SDS011;6124;59.460;17.908;2023-01-01T07:24:07;6.43;;;2.90;;
12120;SDS011;6124;59.460;17.908;2023-01-01T07:26:36;6.63;;;2.50;;
12120;SDS011;6124;59.460;17.908;2023-01-01T07:29:04;6.50;;;2.57;;
12120;SDS011;6124;59.460;17.908;2023-01-01T07:31:34;4.80;;;2.27;;
12120;SDS011;6124;59.460;17.908;2023-01-01T07:34:01;5.43;;;2.43;;
12120;SDS011;6124;59.460;17.908;2023-01-01T07:36:28;7.73;;;3.23;;
12120;SDS011;6124;59.460;17.908;2023-01-01T07:38:56;7.03;;;2.90;;
12120;SDS011;6124;59.460;17.908;2023-01-01T07:41:23;5.57;;;2.77;;
12120;SDS011;6124;59.460;17.908;2023-01-01T07:43:50;6.37;;;2.87;;
12120;SDS011;6124;59.460;17.908;2023-01-01T07:46:18;6.43;;;3.03;;
12120;SDS011;6124;59.460;17.908;2023-01-01T07:48:46;6.43;;;2.80;;
12120;SDS011;6124;59.460;17.908;2023-01-01T07:51:14;3.90;;;2.43;;
12120;SDS011;6124;59.460;17.908;2023-01-01T07:53:41;5.33;;;2.70;;
12120;SDS011;6124;59.460;17.908;2023-01-01T07:56:08;9.23;;;3.30;;
12120;SDS011;6124;59.460;17.908;2023-01-01T07:58:37;8.43;;;3.50;;
12120;SDS011;6124;59.460;17.908;2023-01-01T08:01:04;6.20;;;3.10;;
12120;SDS011;6124;59.460;17.908;2023-01-01T08:03:32;6.47;;;3.47;;
12120;SDS011;6124;59.460;17.908;2023-01-01T08:06:00;5.57;;;3.30;;
12120;SDS011;6124;59.460;17.908;2023-01-01T08:08:31;7.80;;;3.80;;
12120;SDS011;6124;59.460;17.908;2023-01-01T08:10:59;8.70;;;4.17;;
12120;SDS011;6124;59.460;17.908;2023-01-01T08:13:26;10.47;;;3.93;;
12120;SDS011;6124;59.460;17.908;2023-01-01T08:15:53;6.07;;;3.10;;
12120;SDS011;6124;59.460;17.908;2023-01-01T08:18:21;6.73;;;2.90;;
12120;SDS011;6124;59.460;17.908;2023-01-01T08:20:48;9.53;;;3.70;;
12120;SDS011;6124;59.460;17.908;2023-01-01T08:23:17;9.30;;;3.50;;
12120;SDS011;6124;59.460;17.908;2023-01-01T08:25:44;8.93;;;3.87;;
12120;SDS011;6124;59.460;17.908;2023-01-01T08:28:11;5.97;;;3.43;;
12120;SDS011;6124;59.460;17.908;2023-01-01T08:30:39;9.00;;;3.87;;
12120;SDS011;6124;59.460;17.908;2023-01-01T08:33:06;9.23;;;3.67;;
12120;SDS011;6124;59.460;17.908;2023-01-01T08:35:33;7.67;;;3.87;;
12120;SDS011;6124;59.460;17.908;2023-01-01T08:38:02;9.20;;;3.67;;
12120;SDS011;6124;59.460;17.908;2023-01-01T08:40:30;9.77;;;3.40;;
12120;SDS011;6124;59.460;17.908;2023-01-01T08:42:58;10.97;;;4.10;;
12120;SDS011;6124;59.460;17.908;2023-01-01T08:45:25;8.17;;;3.73;;
12120;SDS011;6124;59.460;17.908;2023-01-01T08:47:52;6.50;;;3.33;;
12120;SDS011;6124;59.460;17.908;2023-01-01T08:50:19;7.47;;;3.43;;
12120;SDS011;6124;59.460;17.908;2023-01-01T08:52:47;7.97;;;3.90;;
12120;SDS011;6124;59.460;17.908;2023-01-01T08:55:14;8.23;;;3.97;;
12120;SDS011;6124;59.460;17.908;2023-01-01T08:57:43;7.67;;;4.13;;
12120;SDS011;6124;59.460;17.908;2023-01-01T09:00:11;9.77;;;3.83;;
12120;SDS011;6124;59.460;17.908;2023-01-01T09:02:38;11.63;;;3.73;;
12120;SDS011;6124;59.460;17.908;2023-01-01T09:05:06;10.53;;;4.40;;
12120;SDS011;6124;59.460;17.908;2023-01-01T09:07:33;11.73;;;4.93;;
12120;SDS011;6124;59.460;17.908;2023-01-01T09:10:01;10.97;;;4.80;;
12120;SDS011;6124;59.460;17.908;2023-01-01T09:12:28;10.27;;;4.43;;
12120;SDS011;6124;59.460;17.908;2023-01-01T09:14:57;12.00;;;4.70;;
12120;SDS011;6124;59.460;17.908;2023-01-01T09:17:24;11.40;;;4.70;;
12120;SDS011;6124;59.460;17.908;2023-01-01T09:19:51;11.27;;;4.60;;
12120;SDS011;6124;59.460;17.908;2023-01-01T09:22:19;10.37;;;5.43;;
12120;SDS011;6124;59.460;17.908;2023-01-01T09:24:46;15.03;;;6.10;;
12120;SDS011;6124;59.460;17.908;2023-01-01T09:27:13;8.50;;;4.80;;
12120;SDS011;6124;59.460;17.908;2023-01-01T09:29:41;10.83;;;5.40;;
12120;SDS011;6124;59.460;17.908;2023-01-01T09:32:09;13.80;;;5.73;;
12120;SDS011;6124;59.460;17.908;2023-01-01T09:34:36;8.00;;;4.50;;
12120;SDS011;6124;59.460;17.908;2023-01-01T09:37:04;10.47;;;5.63;;
12120;SDS011;6124;59.460;17.908;2023-01-01T09:39:31;17.23;;;6.93;;
12120;SDS011;6124;59.460;17.908;2023-01-01T09:42:02;15.27;;;7.07;;
12120;SDS011;6124;59.460;17.908;2023-01-01T09:44:41;17.70;;;7.13;;
12120;SDS011;6124;59.460;17.908;2023-01-01T09:47:17;11.80;;;4.57;;
12120;SDS011;6124;59.460;17.908;2023-01-01T09:49:46;9.83;;;3.90;;
12120;SDS011;6124;59.460;17.908;2023-01-01T09:52:14;8.20;;;3.67;;
12120;SDS011;6124;59.460;17.908;2023-01-01T09:54:43;7.03;;;3.70;;
12120;SDS011;6124;59.460;17.908;2023-01-01T09:57:15;7.43;;;3.27;;
12120;SDS011;6124;59.460;17.908;2023-01-01T09:59:43;8.07;;;3.30;;
12120;SDS011;6124;59.460;17.908;2023-01-01T10:02:12;9.50;;;3.80;;
12120;SDS011;6124;59.460;17.908;2023-01-01T10:04:50;8.50;;;3.07;;
12120;SDS011;6124;59.460;17.908;2023-01-01T10:07:22;8.27;;;3.10;;
12120;SDS011;6124;59.460;17.908;2023-01-01T10:09:53;8.57;;;3.33;;
12120;SDS011;6124;59.460;17.908;2023-01-01T10:12:24;6.70;;;2.80;;
12120;SDS011;6124;59.460;17.908;2023-01-01T10:14:57;6.63;;;2.70;;
12120;SDS011;6124;59.460;17.908;2023-01-01T10:17:29;6.83;;;2.83;;
12120;SDS011;6124;59.460;17.908;2023-01-01T10:20:01;7.23;;;3.40;;
12120;SDS011;6124;59.460;17.908;2023-01-01T10:22:30;6.03;;;2.50;;
12120;SDS011;6124;59.460;17.908;2023-01-01T10:24:59;5.77;;;2.43;;
12120;SDS011;6124;59.460;17.908;2023-01-01T10:27:29;7.07;;;2.40;;
12120;SDS011;6124;59.460;17.908;2023-01-01T10:29:57;4.83;;;2.13;;
12120;SDS011;6124;59.460;17.908;2023-01-01T10:32:26;6.63;;;2.43;;
12120;SDS011;6124;59.460;17.908;2023-01-01T10:34:54;5.20;;;2.30;;
12120;SDS011;6124;59.460;17.908;2023-01-01T10:37:24;6.27;;;2.60;;
12120;SDS011;6124;59.460;17.908;2023-01-01T10:39:53;6.33;;;2.37;;
12120;SDS011;6124;59.460;17.908;2023-01-01T10:42:20;3.13;;;1.83;;
12120;SDS011;6124;59.460;17.908;2023-01-01T10:44:49;4.63;;;2.30;;
12120;SDS011;6124;59.460;17.908;2023-01-01T10:47:21;7.50;;;1.97;;
12120;SDS011;6124;59.460;17.908;2023-01-01T10:49:53;5.63;;;2.17;;
12120;SDS011;6124;59.460;17.908;2023-01-01T10:52:21;3.17;;;1.80;;
12120;SDS011;6124;59.460;17.908;2023-01-01T10:54:52;4.10;;;1.97;;
12120;SDS011;6124;59.460;17.908;2023-01-01T10:57:20;4.23;;;2.23;;
12120;SDS011;6124;59.460;17.908;2023-01-01T10:59:54;5.97;;;1.87;;
12120;SDS011;6124;59.460;17.908;2023-01-01T11:02:35;5.30;;;2.30;;
12120;SDS011;6124;59.460;17.908;2023-01-01T11:05:11;4.23;;;1.73;;
12120;SDS011;6124;59.460;17.908;2023-01-01T11:07:39;4.37;;;1.73;;
12120;SDS011;6124;59.460;17.908;2023-01-01T11:10:14;4.17;;;1.77;;
12120;SDS011;6124;59.460;17.908;2023-01-01T11:12:43;4.37;;;1.77;;
12120;SDS011;6124;59.460;17.908;2023-01-01T11:15:19;4.17;;;1.90;;
12120;SDS011;6124;59.460;17.908;2023-01-01T11:17:47;3.20;;;1.73;;
12120;SDS011;6124;59.460;17.908;2023-01-01T11:20:16;6.27;;;1.97;;
12120;SDS011;6124;59.460;17.908;2023-01-01T11:22:44;4.67;;;1.70;;
12120;SDS011;6124;59.460;17.908;2023-01-01T11:25:19;4.87;;;1.60;;
12120;SDS011;6124;59.460;17.908;2023-01-01T11:27:47;3.33;;;1.83;;
12120;SDS011;6124;59.460;17.908;2023-01-01T11:30:22;5.47;;;1.80;;
12120;SDS011;6124;59.460;17.908;2023-01-01T11:32:50;3.57;;;1.70;;
12120;SDS011;6124;59.460;17.908;2023-01-01T11:35:20;5.47;;;1.73;;
12120;SDS011;6124;59.460;17.908;2023-01-01T11:37:48;10.63;;;2.23;;
12120;SDS011;6124;59.460;17.908;2023-01-01T11:40:19;5.20;;;1.67;;
12120;SDS011;6124;59.460;17.908;2023-01-01T11:42:48;3.10;;;1.63;;
12120;SDS011;6124;59.460;17.908;2023-01-01T11:45:18;5.10;;;1.70;;
12120;SDS011;6124;59.460;17.908;2023-01-01T11:47:49;5.17;;;1.80;;
12120;SDS011;6124;59.460;17.908;2023-01-01T11:50:18;4.00;;;1.77;;
12120;SDS011;6124;59.460;17.908;2023-01-01T11:52:49;3.87;;;1.50;;
12120;SDS011;6124;59.460;17.908;2023-01-01T11:55:19;4.60;;;1.57;;
12120;SDS011;6124;59.460;17.908;2023-01-01T11:57:57;6.93;;;1.90;;
12120;SDS011;6124;59.460;17.908;2023-01-01T12:00:25;3.90;;;1.57;;
12120;SDS011;6124;59.460;17.908;2023-01-01T12:02:58;3.33;;;1.60;;
12120;SDS011;6124;59.460;17.908;2023-01-01T12:05:30;6.40;;;1.70;;
12120;SDS011;6124;59.460;17.908;2023-01-01T12:08:01;3.13;;;1.73;;
12120;SDS011;6124;59.460;17.908;2023-01-01T12:10:32;3.60;;;1.60;;
12120;SDS011;6124;59.460;17.908;2023-01-01T12:13:02;2.40;;;1.40;;
12120;SDS011;6124;59.460;17.908;2023-01-01T12:15:34;4.67;;;1.63;;
12120;SDS011;6124;59.460;17.908;2023-01-01T12:18:03;4.23;;;1.90;;
12120;SDS011;6124;59.460;17.908;2023-01-01T12:20:33;3.33;;;1.97;;
12120;SDS011;6124;59.460;17.908;2023-01-01T12:23:01;4.23;;;1.90;;
12120;SDS011;6124;59.460;17.908;2023-01-01T12:25:34;4.30;;;2.03;;
12120;SDS011;6124;59.460;17.908;2023-01-01T12:28:05;3.13;;;1.70;;
12120;SDS011;6124;59.460;17.908;2023-01-01T12:30:37;6.60;;;2.10;;
12120;SDS011;6124;59.460;17.908;2023-01-01T12:33:13;4.83;;;1.50;;
12120;SDS011;6124;59.460;17.908;2023-01-01T12:35:49;3.47;;;1.63;;
12120;SDS011;6124;59.460;17.908;2023-01-01T12:38:21;4.33;;;1.80;;
12120;SDS011;6124;59.460;17.908;2023-01-01T12:40:54;3.50;;;1.77;;
12120;SDS011;6124;59.460;17.908;2023-01-01T12:43:26;4.07;;;2.00;;
12120;SDS011;6124;59.460;17.908;2023-01-01T12:48:48;5.30;;;2.03;;
12120;SDS011;6124;59.460;17.908;2023-01-01T12:51:24;4.63;;;1.90;;
12120;SDS011;6124;59.460;17.908;2023-01-01T12:53:56;2.77;;;1.73;;
12120;SDS011;6124;59.460;17.908;2023-01-01T12:56:27;6.70;;;2.90;;
12120;SDS011;6124;59.460;17.908;2023-01-01T12:58:57;4.23;;;2.30;;
12120;SDS011;6124;59.460;17.908;2023-01-01T13:01:27;3.47;;;2.30;;
12120;SDS011;6124;59.460;17.908;2023-01-01T13:03:56;4.23;;;2.50;;
12120;SDS011;6124;59.460;17.908;2023-01-01T13:06:25;4.87;;;2.37;;
12120;SDS011;6124;59.460;17.908;2023-01-01T13:08:55;4.17;;;2.57;;
12120;SDS011;6124;59.460;17.908;2023-01-01T13:11:25;5.90;;;2.30;;
12120;SDS011;6124;59.460;17.908;2023-01-01T13:13:54;5.77;;;2.37;;
12120;SDS011;6124;59.460;17.908;2023-01-01T13:16:34;4.77;;;2.20;;
12120;SDS011;6124;59.460;17.908;2023-01-01T13:19:02;4.60;;;2.10;;
12120;SDS011;6124;59.460;17.908;2023-01-01T13:21:29;4.93;;;1.97;;
12120;SDS011;6124;59.460;17.908;2023-01-01T13:23:59;4.73;;;2.17;;
12120;SDS011;6124;59.460;17.908;2023-01-01T13:26:38;5.67;;;2.23;;
12120;SDS011;6124;59.460;17.908;2023-01-01T13:32:00;7.60;;;2.60;;
12120;SDS011;6124;59.460;17.908;2023-01-01T13:34:35;7.20;;;2.87;;
12120;SDS011;6124;59.460;17.908;2023-01-01T13:39:50;3.40;;;2.10;;
12120;SDS011;6124;59.460;17.908;2023-01-01T13:45:00;4.07;;;2.33;;
12120;SDS011;6124;59.460;17.908;2023-01-01T13:47:30;4.43;;;2.40;;
12120;SDS011;6124;59.460;17.908;2023-01-01T13:50:02;3.27;;;1.80;;
12120;SDS011;6124;59.460;17.908;2023-01-01T13:52:37;5.60;;;2.60;;
12120;SDS011;6124;59.460;17.908;2023-01-01T13:55:30;4.03;;;2.30;;
12120;SDS011;6124;59.460;17.908;2023-01-01T14:00:53;4.37;;;2.90;;
12120;SDS011;6124;59.460;17.908;2023-01-01T14:03:27;4.53;;;2.67;;
12120;SDS011;6124;59.460;17.908;2023-01-01T14:05:55;4.23;;;3.00;;
12120;SDS011;6124;59.460;17.908;2023-01-01T14:08:28;6.60;;;3.10;;
12120;SDS011;6124;59.460;17.908;2023-01-01T14:10:55;7.50;;;3.93;;
12120;SDS011;6124;59.460;17.908;2023-01-01T14:13:25;6.07;;;3.87;;
12120;SDS011;6124;59.460;17.908;2023-01-01T14:15:54;6.77;;;3.77;;
12120;SDS011;6124;59.460;17.908;2023-01-01T14:18:24;5.83;;;3.57;;
12120;SDS011;6124;59.460;17.908;2023-01-01T14:20:57;7.37;;;3.40;;
12120;SDS011;6124;59.460;17.908;2023-01-01T14:23:26;5.77;;;3.87;;
12120;SDS011;6124;59.460;17.908;2023-01-01T14:25:56;8.27;;;3.40;;
12120;SDS011;6124;59.460;17.908;2023-01-01T14:28:24;4.03;;;2.80;;
12120;SDS011;6124;59.460;17.908;2023-01-01T14:30:52;5.23;;;2.93;;
12120;SDS011;6124;59.460;17.908;2023-01-01T14:33:21;6.47;;;3.27;;
12120;SDS011;6124;59.460;17.908;2023-01-01T14:35:51;6.07;;;3.13;;
12120;SDS011;6124;59.460;17.908;2023-01-01T14:38:24;5.83;;;3.00;;
12120;SDS011;6124;59.460;17.908;2023-01-01T14:40:58;5.00;;;3.17;;
12120;SDS011;6124;59.460;17.908;2023-01-01T14:43:25;6.20;;;3.63;;
12120;SDS011;6124;59.460;17.908;2023-01-01T14:45:53;6.23;;;3.47;;
12120;SDS011;6124;59.460;17.908;2023-01-01T14:48:21;4.97;;;2.80;;
12120;SDS011;6124;59.460;17.908;2023-01-01T14:50:48;4.90;;;2.80;;
12120;SDS011;6124;59.460;17.908;2023-01-01T14:53:17;6.20;;;3.10;;
12120;SDS011;6124;59.460;17.908;2023-01-01T14:55:47;5.27;;;2.93;;
12120;SDS011;6124;59.460;17.908;2023-01-01T14:58:16;5.37;;;2.80;;
12120;SDS011;6124;59.460;17.908;2023-01-01T15:00:44;4.07;;;2.90;;
12120;SDS011;6124;59.460;17.908;2023-01-01T15:03:12;6.30;;;2.63;;
12120;SDS011;6124;59.460;17.908;2023-01-01T15:05:40;4.87;;;2.80;;
12120;SDS011;6124;59.460;17.908;2023-01-01T15:08:16;5.37;;;2.50;;
12120;SDS011;6124;59.460;17.908;2023-01-01T15:10:44;4.80;;;2.47;;